createdAt,value
2022-08-25T00:00:52.285Z,20.95
2022-08-25T00:01:52.201Z,20.82
2022-08-25T00:02:55.268Z,20.85
2022-08-25T00:03:52.057Z,20.77
2022-08-25T00:04:53.844Z,20.77
2022-08-25T00:05:51.955Z,20.78
2022-08-25T00:06:51.831Z,20.72
2022-08-25T00:07:51.761Z,20.74
2022-08-25T00:08:51.688Z,20.75
2022-08-25T00:09:51.611Z,20.67
2022-08-25T00:10:54.013Z,20.66
2022-08-25T00:11:51.460Z,20.59
2022-08-25T00:12:51.382Z,20.59
2022-08-25T00:13:51.307Z,20.60
2022-08-25T00:14:51.240Z,20.59
2022-08-25T00:15:51.205Z,20.55
2022-08-25T00:16:51.089Z,20.52
2022-08-25T00:17:51.010Z,20.48
2022-08-25T00:18:50.937Z,20.55
2022-08-25T00:19:50.869Z,20.55
2022-08-25T00:20:50.791Z,20.51
2022-08-25T00:21:50.716Z,20.48
2022-08-25T00:22:50.643Z,20.48
2022-08-25T00:23:50.564Z,20.50
2022-08-25T00:24:50.495Z,20.43
2022-08-25T00:25:50.422Z,20.43
2022-08-25T00:26:50.344Z,20.39
2022-08-25T00:27:50.267Z,20.40
2022-08-25T00:28:50.190Z,20.39
2022-08-25T00:29:50.117Z,20.36
2022-08-25T00:30:50.118Z,20.40
2022-08-25T00:31:49.964Z,20.40
2022-08-25T00:32:55.333Z,20.32
2022-08-25T00:33:49.817Z,20.37
2022-08-25T00:34:49.743Z,20.34
2022-08-25T00:35:49.681Z,20.39
2022-08-25T00:36:49.595Z,20.29
2022-08-25T00:37:49.520Z,20.31
2022-08-25T00:38:49.441Z,20.36
2022-08-25T00:39:49.399Z,20.25
2022-08-25T00:40:49.299Z,20.24
2022-08-25T00:41:49.217Z,20.25
2022-08-25T00:42:49.142Z,20.21
2022-08-25T00:43:49.069Z,20.21
2022-08-25T00:44:49.003Z,20.25
2022-08-25T00:45:48.963Z,20.19
2022-08-25T00:46:48.841Z,20.13
2022-08-25T00:47:48.772Z,20.09
2022-08-25T00:48:48.693Z,20.22
2022-08-25T00:49:48.640Z,20.11
2022-08-25T00:50:48.544Z,20.06
2022-08-25T00:51:48.470Z,20.06
2022-08-25T00:52:48.393Z,20.11
2022-08-25T00:53:48.324Z,20.09
2022-08-25T00:54:48.252Z,20.03
2022-08-25T00:55:48.170Z,20.04
2022-08-25T00:56:48.097Z,20.02
2022-08-25T00:57:48.036Z,19.95
2022-08-25T00:58:47.945Z,19.96
2022-08-25T00:59:47.876Z,19.99
2022-08-25T01:00:47.792Z,19.96
2022-08-25T01:01:47.806Z,19.95
2022-08-25T01:02:47.714Z,19.88
2022-08-25T01:03:47.571Z,19.94
2022-08-25T01:04:48.901Z,19.89
2022-08-25T01:05:47.422Z,19.89
2022-08-25T01:06:47.347Z,19.84
2022-08-25T01:07:47.268Z,19.86
2022-08-25T01:08:47.195Z,19.84
2022-08-25T01:09:47.122Z,19.91
2022-08-25T01:10:47.045Z,19.91
2022-08-25T01:11:46.978Z,19.82
2022-08-25T01:12:46.894Z,19.84
2022-08-25T01:13:46.816Z,19.77
2022-08-25T01:14:46.756Z,19.79
2022-08-25T01:15:46.772Z,19.73
2022-08-25T01:16:46.597Z,19.85
2022-08-25T01:17:46.517Z,19.76
2022-08-25T01:18:46.552Z,19.81
2022-08-25T01:19:46.367Z,19.76
2022-08-25T01:20:46.291Z,19.74
2022-08-25T01:21:46.217Z,19.82
2022-08-25T01:22:46.142Z,19.71
2022-08-25T01:23:46.064Z,19.85
2022-08-25T01:24:45.992Z,19.79
2022-08-25T01:25:45.919Z,19.73
2022-08-25T01:26:45.842Z,19.81
2022-08-25T01:27:45.771Z,19.64
2022-08-25T01:28:45.689Z,19.71
2022-08-25T01:29:45.619Z,19.73
2022-08-25T01:30:45.600Z,19.67
2022-08-25T01:31:45.466Z,19.56
2022-08-25T01:32:45.393Z,19.58
2022-08-25T01:33:45.317Z,19.55
2022-08-25T01:34:45.241Z,19.59
2022-08-25T01:35:45.165Z,19.59
2022-08-25T01:36:45.096Z,19.63
2022-08-25T01:37:45.016Z,19.63
2022-08-25T01:38:44.938Z,19.52
2022-08-25T01:39:44.923Z,19.62
2022-08-25T01:40:44.791Z,19.48
2022-08-25T01:41:44.717Z,19.63
2022-08-25T01:42:44.640Z,19.49
2022-08-25T01:43:44.561Z,19.59
2022-08-25T01:44:44.487Z,19.55
2022-08-25T01:45:44.434Z,19.56
2022-08-25T01:46:44.342Z,19.55
2022-08-25T01:47:44.267Z,19.52
2022-08-25T01:48:44.189Z,19.56
2022-08-25T01:49:44.109Z,19.54
2022-08-25T01:50:44.057Z,19.58
2022-08-25T01:51:43.960Z,19.49
2022-08-25T01:52:43.897Z,19.51
2022-08-25T01:53:43.814Z,19.51
2022-08-25T01:54:43.746Z,19.48
2022-08-25T01:55:43.658Z,19.54
2022-08-25T01:56:43.584Z,19.41
2022-08-25T01:57:43.508Z,19.39
2022-08-25T01:58:43.435Z,19.47
2022-08-25T01:59:43.360Z,19.47
2022-08-25T02:00:43.282Z,19.39
2022-08-25T02:01:43.260Z,19.36
2022-08-25T02:02:43.970Z,19.45
2022-08-25T02:03:43.059Z,19.39
2022-08-25T02:04:44.582Z,19.41
2022-08-25T02:05:42.906Z,19.37
2022-08-25T02:06:42.829Z,19.39
2022-08-25T02:07:42.758Z,19.41
2022-08-25T02:08:42.682Z,19.40
2022-08-25T02:09:42.604Z,19.34
2022-08-25T02:10:42.528Z,19.36
2022-08-25T02:11:42.458Z,19.34
2022-08-25T02:12:42.381Z,19.34
2022-08-25T02:13:42.311Z,19.30
2022-08-25T02:14:42.229Z,19.36
2022-08-25T02:15:42.154Z,19.29
2022-08-25T02:16:42.150Z,19.33
2022-08-25T02:17:42.007Z,19.27
2022-08-25T02:18:41.940Z,19.26
2022-08-25T02:19:41.851Z,19.29
2022-08-25T02:20:41.774Z,19.36
2022-08-25T02:21:41.702Z,19.29
2022-08-25T02:22:41.622Z,19.30
2022-08-25T02:23:41.550Z,19.26
2022-08-25T02:24:41.475Z,19.26
2022-08-25T02:25:41.399Z,19.26
2022-08-25T02:26:41.329Z,19.29
2022-08-25T02:27:41.248Z,19.29
2022-08-25T02:28:41.174Z,19.29
2022-08-25T02:29:41.098Z,19.31
2022-08-25T02:30:41.051Z,19.27
2022-08-25T02:31:40.943Z,19.27
2022-08-25T02:32:40.869Z,19.26
2022-08-25T02:33:40.795Z,19.29
2022-08-25T02:34:40.723Z,19.26
2022-08-25T02:35:40.642Z,19.31
2022-08-25T02:36:40.565Z,19.19
2022-08-25T02:37:40.494Z,19.14
2022-08-25T02:38:40.416Z,19.24
2022-08-25T02:39:40.340Z,19.22
2022-08-25T02:40:40.266Z,19.22
2022-08-25T02:41:40.193Z,19.21
2022-08-25T02:42:40.118Z,19.16
2022-08-25T02:43:40.038Z,19.18
2022-08-25T02:44:39.964Z,19.21
2022-08-25T02:45:39.980Z,19.15
2022-08-25T02:46:39.815Z,19.14
2022-08-25T02:47:39.738Z,19.11
2022-08-25T02:48:39.660Z,19.11
2022-08-25T02:49:39.583Z,19.00
2022-08-25T02:50:39.514Z,18.95
2022-08-25T02:51:39.434Z,18.86
2022-08-25T02:52:39.364Z,18.89
2022-08-25T02:53:39.285Z,18.89
2022-08-25T02:54:39.215Z,18.92
2022-08-25T02:55:39.134Z,18.93
2022-08-25T02:56:39.052Z,18.92
2022-08-25T02:57:38.979Z,18.92
2022-08-25T02:58:38.907Z,18.90
2022-08-25T02:59:38.830Z,18.93
2022-08-25T03:00:38.756Z,18.88
2022-08-25T03:01:38.734Z,18.73
2022-08-25T03:02:38.602Z,18.86
2022-08-25T03:03:39.538Z,18.84
2022-08-25T03:04:38.475Z,18.78
2022-08-25T03:05:38.377Z,18.83
2022-08-25T03:06:38.301Z,18.74
2022-08-25T03:07:38.225Z,18.84
2022-08-25T03:08:38.152Z,18.84
2022-08-25T03:09:38.270Z,18.84
2022-08-25T03:10:37.994Z,18.83
2022-08-25T03:11:37.921Z,18.90
2022-08-25T03:12:37.846Z,18.92
2022-08-25T03:13:37.778Z,18.88
2022-08-25T03:14:37.698Z,18.86
2022-08-25T03:15:37.618Z,18.75
2022-08-25T03:16:37.659Z,18.89
2022-08-25T03:17:37.468Z,18.81
2022-08-25T03:18:37.394Z,18.86
2022-08-25T03:19:37.312Z,18.83
2022-08-25T03:20:37.240Z,18.78
2022-08-25T03:21:37.164Z,18.80
2022-08-25T03:22:37.088Z,18.80
2022-08-25T03:23:37.015Z,18.78
2022-08-25T03:24:36.938Z,18.83
2022-08-25T03:25:36.861Z,18.80
2022-08-25T03:26:36.784Z,18.80
2022-08-25T03:27:36.709Z,18.83
2022-08-25T03:28:36.637Z,18.83
2022-08-25T03:29:36.564Z,18.81
2022-08-25T03:30:36.481Z,18.80
2022-08-25T03:31:36.439Z,18.86
2022-08-25T03:32:36.334Z,18.81
2022-08-25T03:33:36.256Z,18.83
2022-08-25T03:34:36.188Z,18.86
2022-08-25T03:35:36.107Z,18.80
2022-08-25T03:36:36.024Z,18.83
2022-08-25T03:37:35.950Z,18.83
2022-08-25T03:38:35.874Z,18.80
2022-08-25T03:39:35.796Z,18.80
2022-08-25T03:40:35.725Z,18.80
2022-08-25T03:41:35.650Z,18.77
2022-08-25T03:42:35.579Z,18.81
2022-08-25T03:43:35.494Z,18.81
2022-08-25T03:44:35.422Z,18.78
2022-08-25T03:45:35.396Z,18.86
2022-08-25T03:46:35.272Z,18.81
2022-08-25T03:47:35.194Z,18.78
2022-08-25T03:48:35.118Z,18.74
2022-08-25T03:49:35.040Z,18.71
2022-08-25T03:50:34.971Z,18.63
2022-08-25T03:51:34.900Z,18.81
2022-08-25T03:52:37.876Z,18.70
2022-08-25T03:53:34.736Z,18.78
2022-08-25T03:54:34.661Z,18.88
2022-08-25T03:55:34.590Z,18.78
2022-08-25T03:56:34.509Z,18.74
2022-08-25T03:57:34.433Z,18.74
2022-08-25T03:58:34.356Z,18.81
2022-08-25T03:59:34.279Z,18.73
2022-08-25T04:00:34.210Z,18.77
2022-08-25T04:01:34.162Z,18.74
2022-08-25T04:02:34.088Z,18.70
2022-08-25T04:03:33.979Z,18.63
2022-08-25T04:04:33.905Z,18.70
2022-08-25T04:05:33.827Z,18.70
2022-08-25T04:06:33.751Z,18.66
2022-08-25T04:07:33.674Z,18.80
2022-08-25T04:08:33.604Z,18.78
2022-08-25T04:09:36.821Z,18.70
2022-08-25T04:10:33.447Z,18.78
2022-08-25T04:11:33.371Z,18.66
2022-08-25T04:12:33.301Z,18.62
2022-08-25T04:13:33.224Z,18.71
2022-08-25T04:14:33.149Z,18.68
2022-08-25T04:15:33.067Z,18.70
2022-08-25T04:16:33.034Z,18.70
2022-08-25T04:17:32.921Z,18.66
2022-08-25T04:18:32.840Z,18.80
2022-08-25T04:19:32.771Z,18.80
2022-08-25T04:20:32.688Z,18.78
2022-08-25T04:21:32.614Z,18.78
2022-08-25T04:22:32.540Z,18.77
2022-08-25T04:23:32.463Z,18.81
2022-08-25T04:24:32.385Z,18.66
2022-08-25T04:25:32.311Z,18.70
2022-08-25T04:26:32.237Z,18.75
2022-08-25T04:27:32.161Z,18.84
2022-08-25T04:28:32.080Z,18.75
2022-08-25T04:29:32.010Z,18.78
2022-08-25T04:30:31.937Z,18.78
2022-08-25T04:31:31.909Z,18.81
2022-08-25T04:32:31.777Z,18.78
2022-08-25T04:33:31.702Z,18.77
2022-08-25T04:34:31.696Z,18.78
2022-08-25T04:35:31.550Z,18.78
2022-08-25T04:36:31.473Z,18.78
2022-08-25T04:37:31.401Z,18.84
2022-08-25T04:38:31.325Z,18.84
2022-08-25T04:39:31.250Z,18.78
2022-08-25T04:40:31.222Z,18.83
2022-08-25T04:41:31.098Z,18.86
2022-08-25T04:42:31.025Z,18.80
2022-08-25T04:43:30.943Z,18.78
2022-08-25T04:44:30.885Z,18.74
2022-08-25T04:45:30.853Z,18.78
2022-08-25T04:46:30.717Z,18.81
2022-08-25T04:47:30.639Z,18.84
2022-08-25T04:48:30.575Z,18.84
2022-08-25T04:49:30.486Z,18.88
2022-08-25T04:50:30.412Z,18.93
2022-08-25T04:51:30.336Z,18.93
2022-08-25T04:52:30.259Z,18.89
2022-08-25T04:53:30.185Z,18.98
2022-08-25T04:54:30.111Z,18.90
2022-08-25T04:55:30.035Z,18.86
2022-08-25T04:56:29.957Z,18.86
2022-08-25T04:57:29.883Z,18.88
2022-08-25T04:58:29.806Z,18.89
2022-08-25T04:59:30.530Z,18.89
2022-08-25T05:00:29.662Z,18.90
2022-08-25T05:01:29.619Z,18.93
2022-08-25T05:02:29.506Z,18.95
2022-08-25T05:03:29.424Z,18.88
2022-08-25T05:04:29.390Z,18.92
2022-08-25T05:05:29.276Z,18.93
2022-08-25T05:06:29.202Z,18.92
2022-08-25T05:07:29.123Z,19.00
2022-08-25T05:08:29.051Z,18.95
2022-08-25T05:09:28.976Z,18.89
2022-08-25T05:10:28.899Z,18.92
2022-08-25T05:11:28.823Z,18.99
2022-08-25T05:12:29.035Z,18.99
2022-08-25T05:13:28.668Z,19.08
2022-08-25T05:14:28.598Z,19.11
2022-08-25T05:15:28.519Z,18.99
2022-08-25T05:16:28.480Z,18.95
2022-08-25T05:17:28.362Z,18.98
2022-08-25T05:18:28.292Z,19.04
2022-08-25T05:19:28.217Z,19.04
2022-08-25T05:20:28.142Z,19.07
2022-08-25T05:21:28.069Z,19.09
2022-08-25T05:22:27.985Z,19.11
2022-08-25T05:23:27.913Z,19.08
2022-08-25T05:24:27.862Z,19.09
2022-08-25T05:25:27.763Z,19.14
2022-08-25T05:26:27.685Z,19.11
2022-08-25T05:27:27.622Z,19.19
2022-08-25T05:28:27.534Z,19.19
2022-08-25T05:29:27.460Z,19.21
2022-08-25T05:30:27.406Z,19.24
2022-08-25T05:31:27.362Z,19.29
2022-08-25T05:32:27.228Z,19.16
2022-08-25T05:33:27.174Z,19.30
2022-08-25T05:34:27.074Z,19.33
2022-08-25T05:35:27.003Z,19.29
2022-08-25T05:36:26.925Z,19.31
2022-08-25T05:37:26.853Z,19.29
2022-08-25T05:38:26.771Z,19.31
2022-08-25T05:39:26.978Z,19.29
2022-08-25T05:40:26.651Z,19.37
2022-08-25T05:41:26.557Z,19.36
2022-08-25T05:42:26.477Z,19.44
2022-08-25T05:43:26.399Z,19.41
2022-08-25T05:44:26.319Z,19.56
2022-08-25T05:45:26.291Z,19.51
2022-08-25T05:46:26.179Z,19.59
2022-08-25T05:47:26.099Z,19.56
2022-08-25T05:48:26.016Z,19.63
2022-08-25T05:49:25.943Z,19.56
2022-08-25T05:50:25.874Z,19.59
2022-08-25T05:51:25.790Z,19.73
2022-08-25T05:52:25.712Z,19.69
2022-08-25T05:53:25.643Z,19.70
2022-08-25T05:54:25.563Z,19.64
2022-08-25T05:55:25.489Z,19.85
2022-08-25T05:56:25.411Z,19.79
2022-08-25T05:57:25.338Z,19.74
2022-08-25T05:58:25.266Z,19.84
2022-08-25T05:59:25.184Z,19.84
2022-08-25T06:00:25.115Z,19.95
2022-08-25T06:01:25.105Z,19.94
2022-08-25T06:02:24.966Z,19.94
2022-08-25T06:03:24.942Z,19.95
2022-08-25T06:04:24.812Z,20.04
2022-08-25T06:05:24.735Z,20.10
2022-08-25T06:06:24.666Z,20.04
2022-08-25T06:07:24.589Z,20.11
2022-08-25T06:08:24.508Z,20.11
2022-08-25T06:09:24.481Z,20.07
2022-08-25T06:10:24.365Z,20.11
2022-08-25T06:11:24.282Z,20.21
2022-08-25T06:12:24.217Z,20.22
2022-08-25T06:13:28.825Z,20.22
2022-08-25T06:14:24.066Z,20.25
2022-08-25T06:15:23.981Z,20.16
2022-08-25T06:16:23.941Z,20.28
2022-08-25T06:17:23.832Z,20.24
2022-08-25T06:18:23.762Z,20.25
2022-08-25T06:19:23.823Z,20.25
2022-08-25T06:20:25.388Z,20.37
2022-08-25T06:21:23.534Z,20.34
2022-08-25T06:22:23.457Z,20.41
2022-08-25T06:23:23.382Z,20.44
2022-08-25T06:24:23.309Z,20.50
2022-08-25T06:25:23.231Z,20.58
2022-08-25T06:26:23.159Z,20.51
2022-08-25T06:27:23.075Z,20.60
2022-08-25T06:28:23.005Z,20.69
2022-08-25T06:29:22.932Z,20.67
2022-08-25T06:30:27.182Z,20.72
2022-08-25T06:31:22.815Z,20.80
2022-08-25T06:32:22.704Z,20.69
2022-08-25T06:33:22.628Z,20.78
2022-08-25T06:34:24.021Z,20.80
2022-08-25T06:35:22.476Z,20.85
2022-08-25T06:36:22.400Z,20.85
2022-08-25T06:37:25.207Z,20.85
2022-08-25T06:38:22.257Z,20.96
2022-08-25T06:39:22.176Z,20.96
2022-08-25T06:40:22.154Z,20.97
2022-08-25T06:41:22.027Z,20.95
2022-08-25T06:42:21.958Z,21.03
2022-08-25T06:43:21.879Z,21.06
2022-08-25T06:44:21.804Z,21.09
2022-08-25T06:45:21.724Z,21.15
2022-08-25T06:46:21.711Z,21.18
2022-08-25T06:47:21.643Z,21.17
2022-08-25T06:48:21.502Z,21.25
2022-08-25T06:49:21.432Z,21.25
2022-08-25T06:50:21.372Z,21.30
2022-08-25T06:51:21.286Z,21.36
2022-08-25T06:52:21.237Z,21.32
2022-08-25T06:53:21.128Z,21.39
2022-08-25T06:54:21.059Z,21.42
2022-08-25T06:55:20.982Z,21.39
2022-08-25T06:56:20.904Z,21.48
2022-08-25T06:57:20.828Z,21.48
2022-08-25T06:58:20.760Z,21.52
2022-08-25T06:59:20.680Z,21.52
2022-08-25T07:00:20.610Z,21.57
2022-08-25T07:01:20.724Z,21.58
2022-08-25T07:02:21.842Z,21.58
2022-08-25T07:03:27.489Z,21.62
2022-08-25T07:04:20.305Z,21.62
2022-08-25T07:05:27.203Z,21.62
2022-08-25T07:06:20.160Z,21.70
2022-08-25T07:07:20.084Z,21.70
2022-08-25T07:08:20.019Z,21.73
2022-08-25T07:09:19.934Z,21.75
2022-08-25T07:10:19.859Z,21.79
2022-08-25T07:11:19.784Z,21.82
2022-08-25T07:12:19.727Z,21.77
2022-08-25T07:13:19.640Z,21.89
2022-08-25T07:14:19.573Z,21.95
2022-08-25T07:15:20.771Z,21.95
2022-08-25T07:16:19.496Z,22.06
2022-08-25T07:17:19.338Z,22.04
2022-08-25T07:18:19.264Z,22.13
2022-08-25T07:19:19.191Z,22.17
2022-08-25T07:20:19.535Z,22.20
2022-08-25T07:21:23.063Z,22.20
2022-08-25T07:22:18.963Z,22.25
2022-08-25T07:23:18.893Z,22.23
2022-08-25T07:24:18.816Z,22.35
2022-08-25T07:25:18.745Z,22.35
2022-08-25T07:26:36.888Z,22.51
2022-08-25T07:27:18.599Z,22.48
2022-08-25T07:28:18.520Z,22.54
2022-08-25T07:29:18.468Z,22.51
2022-08-25T07:30:18.394Z,22.63
2022-08-25T07:31:18.338Z,22.63
2022-08-25T07:32:18.227Z,22.60
2022-08-25T07:33:18.151Z,22.66
2022-08-25T07:34:18.074Z,22.70
2022-08-25T07:35:19.169Z,22.78
2022-08-25T07:36:17.931Z,22.78
2022-08-25T07:38:19.754Z,22.94
2022-08-25T07:39:17.707Z,22.84
2022-08-25T07:40:17.967Z,22.98
2022-08-25T07:41:17.558Z,22.98
2022-08-25T07:42:17.488Z,23.10
2022-08-25T07:43:17.415Z,22.96
2022-08-25T07:44:17.338Z,23.03
2022-08-25T07:45:20.965Z,23.09
2022-08-25T07:46:17.241Z,23.21
2022-08-25T07:47:17.114Z,23.17
2022-08-25T07:48:18.386Z,23.20
2022-08-25T07:49:17.124Z,23.39
2022-08-25T07:50:16.892Z,23.36
2022-08-25T07:51:16.871Z,23.37
2022-08-25T07:52:16.743Z,23.32
2022-08-25T07:53:16.678Z,23.34
2022-08-25T07:54:16.598Z,23.40
2022-08-25T07:55:17.792Z,23.46
2022-08-25T07:56:16.450Z,23.54
2022-08-25T07:57:16.378Z,23.56
2022-08-25T07:58:16.309Z,23.59
2022-08-25T07:59:16.230Z,23.66
2022-08-25T08:00:16.154Z,23.62
2022-08-25T08:01:16.089Z,23.71
2022-08-25T08:02:17.966Z,23.74
2022-08-25T08:03:35.206Z,23.74
2022-08-25T08:04:15.864Z,23.84
2022-08-25T08:05:15.788Z,23.77
2022-08-25T08:06:15.713Z,23.84
2022-08-25T08:07:15.646Z,23.87
2022-08-25T08:08:15.566Z,23.84
2022-08-25T08:09:15.494Z,23.92
2022-08-25T08:11:15.350Z,24.01
2022-08-25T08:12:15.279Z,24.06
2022-08-25T08:13:18.012Z,24.02
2022-08-25T08:14:15.127Z,24.14
2022-08-25T08:15:15.062Z,24.14
2022-08-25T08:16:15.078Z,24.17
2022-08-25T08:17:14.907Z,24.18
2022-08-25T08:18:14.838Z,24.28
2022-08-25T08:19:14.761Z,24.29
2022-08-25T08:20:14.686Z,24.28
2022-08-25T08:21:19.154Z,24.42
2022-08-25T08:22:14.549Z,24.36
2022-08-25T08:23:14.469Z,24.39
2022-08-25T08:24:31.242Z,24.42
2022-08-25T08:25:18.865Z,24.39
2022-08-25T08:26:14.249Z,24.50
2022-08-25T08:27:14.174Z,24.61
2022-08-25T08:28:14.108Z,24.51
2022-08-25T08:29:14.030Z,24.55
2022-08-25T08:30:13.956Z,24.61
2022-08-25T08:31:13.927Z,24.58
2022-08-25T08:32:13.811Z,24.63
2022-08-25T08:33:13.770Z,24.66
2022-08-25T08:34:13.665Z,24.77
2022-08-25T08:35:13.588Z,24.76
2022-08-25T08:36:13.519Z,24.84
2022-08-25T08:37:13.441Z,24.85
2022-08-25T08:38:18.484Z,24.91
2022-08-25T08:39:13.298Z,24.92
2022-08-25T08:40:13.249Z,25.03
2022-08-25T08:41:13.154Z,25.06
2022-08-25T08:42:13.137Z,25.10
2022-08-25T08:43:18.026Z,25.04
2022-08-25T08:44:12.934Z,25.14
2022-08-25T08:45:12.864Z,25.23
2022-08-25T08:46:12.848Z,25.26
2022-08-25T08:47:12.721Z,25.28
2022-08-25T08:48:12.648Z,25.25
2022-08-25T08:49:12.575Z,25.35
2022-08-25T08:50:12.503Z,25.41
2022-08-25T08:51:12.430Z,25.33
2022-08-25T08:52:12.351Z,25.43
2022-08-25T08:53:12.291Z,25.50
2022-08-25T08:54:15.473Z,25.48
2022-08-25T08:55:12.137Z,25.48
2022-08-25T08:56:12.411Z,25.46
2022-08-25T08:57:12.006Z,25.46
2022-08-25T08:58:11.922Z,25.59
2022-08-25T08:59:11.846Z,25.63
2022-08-25T09:00:11.771Z,25.60
2022-08-25T09:01:11.737Z,25.75
2022-08-25T09:02:13.757Z,25.69
2022-08-25T09:03:11.580Z,25.68
2022-08-25T09:04:11.504Z,25.70
2022-08-25T09:05:11.423Z,25.83
2022-08-25T09:06:11.338Z,25.75
2022-08-25T09:07:11.271Z,25.80
2022-08-25T09:08:11.770Z,25.81
2022-08-25T09:09:11.124Z,25.90
2022-08-25T09:10:11.048Z,25.81
2022-08-25T09:11:10.981Z,25.85
2022-08-25T09:12:10.906Z,25.88
2022-08-25T09:13:12.738Z,25.91
2022-08-25T09:14:10.762Z,25.93
2022-08-25T09:15:12.573Z,25.95
2022-08-25T09:16:10.668Z,25.96
2022-08-25T09:17:10.548Z,26.00
2022-08-25T09:18:12.061Z,26.00
2022-08-25T09:19:10.399Z,25.95
2022-08-25T09:20:18.293Z,25.98
2022-08-25T09:21:10.258Z,25.99
2022-08-25T09:22:35.332Z,26.02
2022-08-25T09:23:10.117Z,26.05
2022-08-25T09:24:10.050Z,26.13
2022-08-25T09:25:09.970Z,26.21
2022-08-25T09:26:09.895Z,26.22
2022-08-25T09:27:09.828Z,26.23
2022-08-25T09:28:09.754Z,26.29
2022-08-25T09:29:16.386Z,26.31
2022-08-25T09:30:10.142Z,26.44
2022-08-25T09:31:09.645Z,26.34
2022-08-25T09:32:09.469Z,26.44
2022-08-25T09:33:09.394Z,26.44
2022-08-25T09:34:09.331Z,26.38
2022-08-25T09:35:09.247Z,26.36
2022-08-25T09:36:09.273Z,26.41
2022-08-25T09:37:09.106Z,26.34
2022-08-25T09:38:09.037Z,26.28
2022-08-25T09:39:09.953Z,26.31
2022-08-25T09:40:08.905Z,26.19
2022-08-25T09:41:08.819Z,26.19
2022-08-25T09:42:08.745Z,26.22
2022-08-25T09:43:08.674Z,26.22
2022-08-25T09:44:08.604Z,26.16
2022-08-25T09:45:08.533Z,26.21
2022-08-25T09:46:08.523Z,26.16
2022-08-25T09:47:08.511Z,26.16
2022-08-25T09:48:08.319Z,26.15
2022-08-25T09:49:08.262Z,26.19
2022-08-25T09:50:08.174Z,26.26
2022-08-25T09:51:08.142Z,26.28
2022-08-25T09:52:08.030Z,26.29
2022-08-25T09:53:14.743Z,26.33
2022-08-25T09:54:10.593Z,26.28
2022-08-25T09:55:07.821Z,26.26
2022-08-25T09:56:07.748Z,26.21
2022-08-25T09:57:08.602Z,26.22
2022-08-25T09:58:09.588Z,26.19
2022-08-25T09:59:07.529Z,26.22
2022-08-25T10:00:07.455Z,26.15
2022-08-25T10:01:07.473Z,26.22
2022-08-25T10:02:07.312Z,26.19
2022-08-25T10:03:08.026Z,26.31
2022-08-25T10:04:07.197Z,26.31
2022-08-25T10:05:07.147Z,26.31
2022-08-25T10:06:07.029Z,26.31
2022-08-25T10:07:08.760Z,26.33
2022-08-25T10:08:06.888Z,26.31
2022-08-25T10:09:06.837Z,26.29
2022-08-25T10:10:06.738Z,26.26
2022-08-25T10:11:06.672Z,26.28
2022-08-25T10:12:06.599Z,26.26
2022-08-25T10:13:06.807Z,26.26
2022-08-25T10:14:06.453Z,26.28
2022-08-25T10:15:06.383Z,26.28
2022-08-25T10:16:20.130Z,26.29
2022-08-25T10:17:06.244Z,26.36
2022-08-25T10:18:06.167Z,26.43
2022-08-25T10:19:06.097Z,26.37
2022-08-25T10:20:06.021Z,26.41
2022-08-25T10:21:07.513Z,26.51
2022-08-25T10:22:05.879Z,26.47
2022-08-25T10:23:05.955Z,26.56
2022-08-25T10:24:05.750Z,26.51
2022-08-25T10:25:05.667Z,26.62
2022-08-25T10:26:05.605Z,26.62
2022-08-25T10:27:05.518Z,26.53
2022-08-25T10:29:37.532Z,26.73
2022-08-25T10:30:37.470Z,26.71
2022-08-25T10:32:41.902Z,26.84
2022-08-25T10:33:41.820Z,26.85
2022-08-25T10:35:46.252Z,26.99
2022-08-25T10:36:46.945Z,26.99
2022-08-25T10:37:46.083Z,27.00
2022-08-25T10:38:46.012Z,27.11
2022-08-25T10:39:46.008Z,27.08
2022-08-25T10:40:45.954Z,27.05
2022-08-25T10:41:45.807Z,27.08
2022-08-25T10:42:45.728Z,27.05
2022-08-25T10:43:45.663Z,27.10
2022-08-25T10:44:45.591Z,27.14
2022-08-25T10:45:45.702Z,27.20
2022-08-25T10:46:45.514Z,27.18
2022-08-25T10:47:45.372Z,27.21
2022-08-25T10:48:45.303Z,27.27
2022-08-25T10:49:45.227Z,27.30
2022-08-25T10:50:45.413Z,27.30
2022-08-25T10:51:45.089Z,27.30
2022-08-25T10:52:45.015Z,27.40
2022-08-25T10:53:44.945Z,27.36
2022-08-25T10:54:44.882Z,27.39
2022-08-25T10:55:44.799Z,27.39
2022-08-25T10:56:44.730Z,27.49
2022-08-25T10:57:44.659Z,27.40
2022-08-25T10:58:44.589Z,27.52
2022-08-25T10:59:44.519Z,27.60
2022-08-25T11:00:46.634Z,27.70
2022-08-25T11:01:44.649Z,27.68
2022-08-25T11:02:44.307Z,27.75
2022-08-25T11:03:44.233Z,27.90
2022-08-25T11:04:44.235Z,27.98
2022-08-25T11:05:44.096Z,27.96
2022-08-25T11:06:44.022Z,28.01
2022-08-25T11:07:43.950Z,28.15
2022-08-25T11:08:43.882Z,28.20
2022-08-25T11:09:43.809Z,28.23
2022-08-25T11:10:43.741Z,28.29
2022-08-25T11:11:43.671Z,28.29
2022-08-25T11:12:43.599Z,28.41
2022-08-25T11:13:43.536Z,28.35
2022-08-25T11:14:43.457Z,28.27
2022-08-25T11:15:54.828Z,28.33
2022-08-25T11:16:43.345Z,28.35
2022-08-25T11:17:43.243Z,28.35
2022-08-25T11:18:43.172Z,28.42
2022-08-25T11:19:43.104Z,28.42
2022-08-25T11:20:43.034Z,28.49
2022-08-25T11:21:42.966Z,28.54
2022-08-25T11:22:42.892Z,28.56
2022-08-25T11:23:42.823Z,28.47
2022-08-25T11:24:42.751Z,28.59
2022-08-25T11:25:42.682Z,28.63
2022-08-25T11:26:42.618Z,28.69
2022-08-25T11:27:42.543Z,28.63
2022-08-25T11:28:42.470Z,28.60
2022-08-25T11:29:42.402Z,28.60
2022-08-25T11:30:42.377Z,28.56
2022-08-25T11:31:42.257Z,28.64
2022-08-25T11:32:42.189Z,28.70
2022-08-25T11:33:42.130Z,28.74
2022-08-25T11:34:43.557Z,28.74
2022-08-25T11:35:42.006Z,28.76
2022-08-25T11:36:41.913Z,28.74
2022-08-25T11:37:41.835Z,28.78
2022-08-25T11:38:41.769Z,28.78
2022-08-25T11:39:41.699Z,28.82
2022-08-25T11:40:41.631Z,28.88
2022-08-25T11:41:41.560Z,28.79
2022-08-25T11:42:41.505Z,28.82
2022-08-25T11:43:41.422Z,28.91
2022-08-25T11:44:53.101Z,28.98
2022-08-25T11:45:41.318Z,29.19
2022-08-25T11:46:41.208Z,29.23
2022-08-25T11:47:41.135Z,29.36
2022-08-25T11:48:41.068Z,29.50
2022-08-25T11:49:40.998Z,29.56
2022-08-25T11:50:40.934Z,29.66
2022-08-25T11:51:40.856Z,29.69
2022-08-25T11:52:40.842Z,29.72
2022-08-25T11:53:42.314Z,29.81
2022-08-25T11:54:41.774Z,29.79
2022-08-25T11:55:40.580Z,29.98
2022-08-25T11:56:40.514Z,30.06
2022-08-25T11:57:40.449Z,30.03
2022-08-25T11:58:40.767Z,30.08
2022-08-25T11:59:40.306Z,30.16
2022-08-25T12:00:41.107Z,30.35
2022-08-25T12:01:40.415Z,30.55
2022-08-25T12:02:40.093Z,30.57
2022-08-25T12:03:40.030Z,30.80
2022-08-25T12:04:44.222Z,30.85
2022-08-25T12:05:39.912Z,30.72
2022-08-25T12:06:39.822Z,30.83
2022-08-25T12:07:39.752Z,30.92
2022-08-25T12:08:39.677Z,30.90
2022-08-25T12:09:39.613Z,31.06
2022-08-25T12:10:39.539Z,30.99
2022-08-25T12:11:39.478Z,31.02
2022-08-25T12:12:39.403Z,31.02
2022-08-25T12:13:39.338Z,31.14
2022-08-25T12:14:39.274Z,31.09
2022-08-25T12:15:39.196Z,31.21
2022-08-25T12:16:39.174Z,31.25
2022-08-25T12:17:39.478Z,31.33
2022-08-25T12:18:38.992Z,31.39
2022-08-25T12:19:38.934Z,31.55
2022-08-25T12:20:38.852Z,31.59
2022-08-25T12:21:38.785Z,31.71
2022-08-25T12:22:38.722Z,31.71
2022-08-25T12:23:44.589Z,31.85
2022-08-25T12:24:38.586Z,32.12
2022-08-25T12:25:38.508Z,32.29
2022-08-25T12:26:38.449Z,32.46
2022-08-25T12:27:38.379Z,32.51
2022-08-25T12:28:39.048Z,32.70
2022-08-25T12:29:38.240Z,32.73
2022-08-25T12:30:38.208Z,32.90
2022-08-25T12:31:38.103Z,32.92
2022-08-25T12:32:38.037Z,32.85
2022-08-25T12:33:37.968Z,32.71
2022-08-25T12:34:37.901Z,32.59
2022-08-25T12:35:37.831Z,32.56
2022-08-25T12:36:37.763Z,32.65
2022-08-25T12:37:37.691Z,32.49
2022-08-25T12:38:42.559Z,32.52
2022-08-25T12:39:37.557Z,32.41
2022-08-25T12:40:37.502Z,32.36
2022-08-25T12:41:37.418Z,32.26
2022-08-25T12:42:37.968Z,32.19
2022-08-25T12:43:37.949Z,32.16
2022-08-25T12:44:37.219Z,32.07
2022-08-25T12:45:37.159Z,32.04
2022-08-25T12:46:37.088Z,32.12
2022-08-25T12:47:37.763Z,32.12
2022-08-25T12:48:36.948Z,32.03
2022-08-25T12:49:36.881Z,32.16
2022-08-25T12:50:36.810Z,32.27
2022-08-25T12:51:36.745Z,32.48
2022-08-25T12:52:36.678Z,32.70
2022-08-25T12:53:36.607Z,32.95
2022-08-25T12:54:36.537Z,33.22
2022-08-25T12:55:36.473Z,33.47
2022-08-25T12:56:39.240Z,33.46
2022-08-25T12:57:36.341Z,33.74